Time;durP1;ratioP1;P1;durP2;ratioP2;P2;SDS_P1;SDS_P2;PMS_P1;PMS_P2;Temp;Humidity;BMP_temperature;BMP_pressure;BME280_temperature;BME280_humidity;BME280_pressure;Samples;Min_cycle;Max_cycle;Signal;HPM_P1;HPM_P2
2023/03/20 00:01:28;;;;;;;0.00;0.00;;;7.50;91.70;;;;;;5099966;28;20120;-68
2023/03/20 00:03:56;;;;;;;0.00;0.00;;;7.40;91.60;;;;;;5112164;28;20075;-68
2023/03/20 00:06:23;;;;;;;0.20;0.20;;;7.50;91.60;;;;;;5106045;28;20040;-68
2023/03/20 00:08:52;;;;;;;0.00;0.00;;;7.50;91.70;;;;;;5092984;28;20062;-68
2023/03/20 00:11:29;;;;;;;0.00;0.00;;;7.60;91.70;;;;;;5102582;28;20039;-68
2023/03/20 00:13:58;;;;;;;0.00;0.00;;;7.60;91.80;;;;;;5074014;28;20054;-68
2023/03/20 00:16:29;;;;;;;0.00;0.00;;;7.60;91.70;;;;;;5112057;28;20039;-68
2023/03/20 00:18:55;;;;;;;0.00;0.00;;;7.60;91.70;;;;;;5109432;28;20040;-68
2023/03/20 00:21:21;;;;;;;0.00;0.00;;;7.60;91.80;;;;;;5076452;28;20065;-69
2023/03/20 00:23:46;;;;;;;0.00;0.00;;;7.60;91.70;;;;;;5072622;28;20045;-68
2023/03/20 00:26:19;;;;;;;0.00;0.00;;;7.60;91.80;;;;;;5075866;28;20074;-68
2023/03/20 00:28:46;;;;;;;0.00;0.00;;;7.60;91.70;;;;;;5099245;28;20046;-69
2023/03/20 00:31:29;;;;;;;0.00;0.00;;;7.60;91.80;;;;;;5099193;28;20039;-68
2023/03/20 00:33:59;;;;;;;;;;;7.60;91.90;;;;;;5093829;28;20060;-68
2023/03/20 00:36:25;;;;;;;0.32;0.32;;;7.60;91.90;;;;;;5107645;28;19920;-68
2023/03/20 00:38:52;;;;;;;1.45;0.73;;;7.70;91.90;;;;;;5111049;28;20035;-68
2023/03/20 00:41:31;;;;;;;0.00;0.00;;;7.60;91.90;;;;;;5103924;28;20115;-68
2023/03/20 00:44:01;;;;;;;0.00;0.00;;;7.70;91.90;;;;;;5104412;28;20040;-68
2023/03/20 00:46:28;;;;;;;0.00;0.00;;;7.70;91.90;;;;;;5101661;28;20039;-68
2023/03/20 00:48:54;;;;;;;0.10;0.10;;;7.70;92.00;;;;;;5110905;28;20044;-68
2023/03/20 00:51:20;;;;;;;0.00;0.00;;;7.70;92.00;;;;;;5097360;28;20068;-68
2023/03/20 00:53:46;;;;;;;0.00;0.00;;;7.70;92.00;;;;;;5107778;28;20136;-69
2023/03/20 00:56:35;;;;;;;0.00;0.00;;;7.70;92.00;;;;;;5092232;28;20045;-69
2023/03/20 00:59:02;;;;;;;0.00;0.00;;;7.70;91.90;;;;;;5089967;28;20040;-69
2023/03/20 01:01:29;;;;;;;0.00;0.00;;;7.70;92.00;;;;;;5094653;28;20036;-69
2023/03/20 01:03:55;;;;;;;0.00;0.00;;;7.70;91.90;;;;;;5110910;28;20035;-69
2023/03/20 01:06:20;;;;;;;0.00;0.00;;;7.70;92.00;;;;;;5104305;28;20044;-69
2023/03/20 01:08:47;;;;;;;0.10;0.10;;;7.70;92.00;;;;;;5089808;28;20040;-68
2023/03/20 01:11:15;;;;;;;0.00;0.00;;;7.70;92.00;;;;;;5084136;28;20131;-68
2023/03/20 01:13:41;;;;;;;0.00;0.00;;;7.80;91.90;;;;;;5070521;28;20136;-68
2023/03/20 01:16:19;;;;;;;0.05;0.05;;;7.80;91.90;;;;;;5110580;28;20114;-68
2023/03/20 01:18:44;;;;;;;0.00;0.00;;;7.70;91.90;;;;;;5097033;28;20435;-68
2023/03/20 01:21:11;;;;;;;0.00;0.00;;;7.70;91.90;;;;;;5092039;28;20043;-68
2023/03/20 01:23:36;;;;;;;0.00;0.00;;;7.80;91.90;;;;;;5090940;28;20119;-68
2023/03/20 01:26:02;;;;;;;0.00;0.00;;;7.80;91.90;;;;;;5090205;28;20048;-69
2023/03/20 01:28:30;;;;;;;0.10;0.10;;;7.80;91.90;;;;;;5085242;28;20032;-69
2023/03/20 01:30:55;;;;;;;0.10;0.10;;;7.90;91.80;;;;;;5072161;28;20039;-68
2023/03/20 01:33:25;;;;;;;0.00;0.00;;;7.80;91.80;;;;;;5089981;28;20056;-68
2023/03/20 01:35:51;;;;;;;0.00;0.00;;;7.90;91.80;;;;;;5070184;28;20386;-69
2023/03/20 01:38:24;;;;;;;0.00;0.00;;;7.90;91.70;;;;;;5070106;28;20036;-68
2023/03/20 01:41:07;;;;;;;0.13;0.13;;;7.90;91.80;;;;;;5070623;28;20048;-68
2023/03/20 01:43:34;;;;;;;0.00;0.00;;;7.90;91.70;;;;;;5071304;28;20771;-68
2023/03/20 01:46:21;;;;;;;0.00;0.00;;;7.90;91.70;;;;;;5068487;28;20432;-68
2023/03/20 01:48:50;;;;;;;0.10;0.10;;;7.90;91.70;;;;;;5051857;28;20058;-68
2023/03/20 01:51:22;;;;;;;0.40;0.40;;;7.90;91.60;;;;;;5073765;28;20038;-68
2023/03/20 01:53:56;;;;;;;0.10;0.10;;;8.00;91.70;;;;;;5090225;28;20504;-69
2023/03/20 01:56:21;;;;;;;0.00;0.00;;;8.00;91.70;;;;;;5075554;28;20062;-68
2023/03/20 01:58:57;;;;;;;0.00;0.00;;;8.00;91.60;;;;;;5075490;28;20040;-68
2023/03/20 02:01:24;;;;;;;0.00;0.00;;;8.00;91.60;;;;;;5100255;28;20147;-68
2023/03/20 02:03:50;;;;;;;0.00;0.00;;;8.00;91.70;;;;;;5073747;28;20846;-68
2023/03/20 02:06:17;;;;;;;0.00;0.00;;;8.10;91.60;;;;;;5089472;28;20050;-68
2023/03/20 02:08:50;;;;;;;0.00;0.00;;;8.10;91.50;;;;;;5054404;28;20087;-68
2023/03/20 02:11:18;;;;;;;0.00;0.00;;;8.10;91.50;;;;;;5087261;28;20051;-68
2023/03/20 02:13:46;;;;;;;0.00;0.00;;;8.00;91.50;;;;;;5074184;28;20044;-68
2023/03/20 02:16:14;;;;;;;0.00;0.00;;;8.00;91.40;;;;;;5093010;28;20413;-68
2023/03/20 02:18:42;;;;;;;0.35;0.35;;;8.10;91.40;;;;;;5071722;28;20040;-68
2023/03/20 02:21:45;;;;;;;0.00;0.00;;;8.00;91.30;;;;;;5052194;28;20150;-68
2023/03/20 02:24:17;;;;;;;0.30;0.30;;;8.00;91.30;;;;;;5104001;28;20043;-68
2023/03/20 02:27:28;;;;;;;0.10;0.10;;;8.10;91.30;;;;;;5105512;28;20086;-68
2023/03/20 02:30:41;;;;;;;0.00;0.00;;;8.00;91.10;;;;;;5100016;28;20135;-68
2023/03/20 02:33:25;;;;;;;0.00;0.00;;;8.00;91.00;;;;;;5096173;28;20575;-68
2023/03/20 02:36:07;;;;;;;0.08;0.08;;;8.00;91.00;;;;;;5088512;28;20048;-68
2023/03/20 02:38:50;;;;;;;0.10;0.10;;;8.10;90.80;;;;;;5069576;28;20088;-68
2023/03/20 02:41:32;;;;;;;0.75;0.75;;;8.10;90.80;;;;;;5092299;28;20094;-68
2023/03/20 02:44:06;;;;;;;1.15;0.43;;;8.00;90.70;;;;;;5076958;28;20051;-68
2023/03/20 02:46:59;;;;;;;0.00;0.00;;;8.10;90.50;;;;;;5064523;28;20063;-68
2023/03/20 02:50:00;;;;;;;0.00;0.00;;;8.10;90.50;;;;;;5051410;28;20716;-69
2023/03/20 02:52:43;;;;;;;0.00;0.00;;;8.10;90.40;;;;;;5076918;28;20056;-69
2023/03/20 02:55:29;;;;;;;0.00;0.00;;;8.20;90.20;;;;;;5055347;28;20123;-68
2023/03/20 02:58:16;;;;;;;0.08;0.08;;;8.10;89.80;;;;;;5050435;28;20592;-68
2023/03/20 03:00:51;;;;;;;0.00;0.00;;;8.10;89.70;;;;;;5088881;28;20056;-68
2023/03/20 03:03:23;;;;;;;0.00;0.00;;;8.20;89.50;;;;;;5102532;28;20386;-68
2023/03/20 03:06:00;;;;;;;0.00;0.00;;;8.20;89.10;;;;;;5088056;28;21526;-68
2023/03/20 03:08:31;;;;;;;0.00;0.00;;;8.10;89.00;;;;;;5071620;28;20080;-68
2023/03/20 03:11:02;;;;;;;0.13;0.13;;;8.20;88.80;;;;;;5084273;28;20059;-68
2023/03/20 03:13:32;;;;;;;0.10;0.10;;;8.10;88.40;;;;;;5087866;28;20079;-68
2023/03/20 03:16:04;;;;;;;0.17;0.17;;;8.10;88.40;;;;;;5071910;28;20409;-68
2023/03/20 03:18:33;;;;;;;0.65;0.65;;;8.10;88.50;;;;;;5072155;28;20099;-68
2023/03/20 03:21:01;;;;;;;0.00;0.00;;;8.10;88.30;;;;;;5071750;28;20059;-68
2023/03/20 03:23:42;;;;;;;0.05;0.05;;;8.10;88.30;;;;;;5071921;28;20055;-68
2023/03/20 03:26:17;;;;;;;0.17;0.17;;;8.10;87.70;;;;;;5081439;28;20040;-68
2023/03/20 03:28:49;;;;;;;0.10;0.10;;;8.10;88.10;;;;;;5107415;28;20032;-68
2023/03/20 03:31:17;;;;;;;0.00;0.00;;;8.10;88.10;;;;;;5103500;28;20093;-68
2023/03/20 03:33:49;;;;;;;0.20;0.20;;;8.10;88.10;;;;;;5093982;28;20416;-68
2023/03/20 03:36:40;;;;;;;0.00;0.00;;;8.10;88.10;;;;;;5073308;28;20052;-69
2023/03/20 03:39:26;;;;;;;1.08;1.08;;;8.10;88.10;;;;;;5108636;28;20400;-69
2023/03/20 03:42:01;;;;;;;0.30;0.30;;;8.10;88.10;;;;;;5080943;28;20043;-68
2023/03/20 03:44:47;;;;;;;0.32;0.32;;;8.10;88.10;;;;;;5063509;28;20044;-68
2023/03/20 03:47:24;;;;;;;0.00;0.00;;;8.10;88.10;;;;;;5112849;28;20050;-69
2023/03/20 03:50:04;;;;;;;0.35;0.35;;;8.00;88.10;;;;;;5082294;28;20044;-69
2023/03/20 03:52:32;;;;;;;0.00;0.00;;;8.00;88.20;;;;;;5071904;28;20040;-68
2023/03/20 03:55:05;;;;;;;0.08;0.08;;;8.10;88.30;;;;;;5084180;28;20044;-69
2023/03/20 03:57:49;;;;;;;0.00;0.00;;;8.00;88.40;;;;;;5087912;28;20109;-68
2023/03/20 04:00:19;;;;;;;0.15;0.15;;;8.00;88.60;;;;;;5088753;28;20039;-68
2023/03/20 04:02:49;;;;;;;0.00;0.00;;;8.00;88.70;;;;;;5101723;28;20059;-69
2023/03/20 04:05:17;;;;;;;0.05;0.05;;;8.00;88.60;;;;;;5089753;28;20040;-69
2023/03/20 04:07:45;;;;;;;0.00;0.00;;;8.00;88.80;;;;;;5092209;28;20401;-68
2023/03/20 04:10:11;;;;;;;0.03;0.03;;;8.10;88.70;;;;;;5077906;28;20455;-68
2023/03/20 04:12:39;;;;;;;0.00;0.00;;;7.90;88.70;;;;;;5072696;28;20028;-69
2023/03/20 04:15:06;;;;;;;0.00;0.00;;;7.90;88.80;;;;;;5086360;28;20492;-68
2023/03/20 04:17:32;;;;;;;0.00;0.00;;;7.90;88.80;;;;;;5073334;28;20074;-69
2023/03/20 04:19:58;;;;;;;1.17;0.90;;;8.00;88.80;;;;;;5089204;28;20046;-68
2023/03/20 04:22:24;;;;;;;0.10;0.10;;;8.00;88.60;;;;;;5087189;28;20706;-68
2023/03/20 04:24:50;;;;;;;2.17;1.45;;;7.90;88.80;;;;;;5092477;28;20050;-69
2023/03/20 04:27:16;;;;;;;0.00;0.00;;;7.90;88.80;;;;;;5075887;28;20049;-68
2023/03/20 04:29:42;;;;;;;0.08;0.08;;;7.90;88.80;;;;;;5084040;28;20040;-68
2023/03/20 04:32:08;;;;;;;0.10;0.10;;;7.90;88.90;;;;;;5106212;28;20637;-69
2023/03/20 04:34:33;;;;;;;0.10;0.10;;;7.90;88.90;;;;;;5110830;28;20138;-68
2023/03/20 04:37:00;;;;;;;0.00;0.00;;;7.90;89.00;;;;;;5110755;28;20043;-68
2023/03/20 04:39:26;;;;;;;0.00;0.00;;;7.90;89.10;;;;;;5052542;28;20052;-68
2023/03/20 04:41:52;;;;;;;0.00;0.00;;;7.90;89.20;;;;;;5086397;28;20040;-69
2023/03/20 04:44:17;;;;;;;0.00;0.00;;;7.80;89.20;;;;;;5091068;28;20040;-68
2023/03/20 04:46:43;;;;;;;0.00;0.00;;;7.90;89.30;;;;;;5091267;28;20040;-68
2023/03/20 04:49:09;;;;;;;0.00;0.00;;;7.90;89.40;;;;;;5089034;28;20043;-68
2023/03/20 04:51:34;;;;;;;0.00;0.00;;;7.80;89.40;;;;;;5090950;28;20098;-68
2023/03/20 04:54:00;;;;;;;0.10;0.10;;;7.80;89.50;;;;;;5093552;28;20039;-68
2023/03/20 04:56:26;;;;;;;0.00;0.00;;;7.80;89.40;;;;;;5102247;28;20032;-68
2023/03/20 04:58:51;;;;;;;0.30;0.30;;;7.80;89.50;;;;;;5075189;28;20075;-68
2023/03/20 05:01:17;;;;;;;0.10;0.10;;;7.80;89.40;;;;;;5104405;28;20051;-68
2023/03/20 05:03:42;;;;;;;0.00;0.00;;;7.70;89.50;;;;;;5110515;28;20119;-68
2023/03/20 05:06:08;;;;;;;0.90;0.90;;;7.80;89.60;;;;;;5111821;28;20047;-68
2023/03/20 05:08:34;;;;;;;0.10;0.10;;;7.80;89.50;;;;;;5087628;28;20047;-68
2023/03/20 05:11:00;;;;;;;0.63;0.63;;;7.80;89.40;;;;;;5109461;28;20059;-69
2023/03/20 05:13:26;;;;;;;0.00;0.00;;;7.80;89.50;;;;;;5111065;28;20110;-69
2023/03/20 05:15:52;;;;;;;0.00;0.00;;;7.70;89.40;;;;;;5108939;28;20048;-68
2023/03/20 05:18:17;;;;;;;1.25;0.63;;;7.70;89.40;;;;;;5091948;28;20101;-68
2023/03/20 05:20:43;;;;;;;0.43;0.43;;;7.70;89.30;;;;;;5098778;28;20036;-68
2023/03/20 05:23:09;;;;;;;0.10;0.10;;;7.70;89.20;;;;;;5070415;28;20044;-68
2023/03/20 05:25:34;;;;;;;0.20;0.20;;;7.70;89.20;;;;;;5062549;28;20048;-69
2023/03/20 05:28:00;;;;;;;0.10;0.10;;;7.70;89.20;;;;;;5090371;28;20403;-68
2023/03/20 05:30:25;;;;;;;0.00;0.00;;;7.70;89.20;;;;;;5106820;28;20101;-68
2023/03/20 05:32:51;;;;;;;0.00;0.00;;;7.70;89.20;;;;;;5075322;28;20486;-68
2023/03/20 05:35:18;;;;;;;0.20;0.20;;;7.70;89.20;;;;;;5079434;28;20130;-69
2023/03/20 05:37:44;;;;;;;0.00;0.00;;;7.70;89.10;;;;;;5094463;28;20036;-68
2023/03/20 05:40:14;;;;;;;0.65;0.65;;;7.80;89.10;;;;;;5088967;28;20408;-69
2023/03/20 05:42:40;;;;;;;0.00;0.00;;;7.70;88.90;;;;;;5081744;28;20411;-69
2023/03/20 05:45:06;;;;;;;0.75;0.75;;;7.70;88.90;;;;;;5088856;28;20039;-69
2023/03/20 05:47:31;;;;;;;0.10;0.10;;;7.70;88.70;;;;;;5088313;28;20546;-69
2023/03/20 05:49:57;;;;;;;0.08;0.08;;;7.60;88.70;;;;;;5054040;28;20040;-69
2023/03/20 05:52:23;;;;;;;0.00;0.00;;;7.70;88.70;;;;;;5083607;28;20040;-69
2023/03/20 05:54:48;;;;;;;0.30;0.30;;;7.70;88.70;;;;;;5087998;28;20516;-69
2023/03/20 05:57:14;;;;;;;0.00;0.00;;;7.70;88.70;;;;;;5088709;28;20038;-69
2023/03/20 05:59:40;;;;;;;0.00;0.00;;;7.70;88.70;;;;;;5070291;28;20035;-69
2023/03/20 06:02:06;;;;;;;0.10;0.10;;;7.70;88.70;;;;;;5085591;28;20043;-69
2023/03/20 06:04:31;;;;;;;0.17;0.17;;;7.80;88.70;;;;;;5087597;28;20040;-69
2023/03/20 06:06:57;;;;;;;0.00;0.00;;;7.70;88.60;;;;;;5088671;28;20052;-69
2023/03/20 06:09:22;;;;;;;0.00;0.00;;;7.70;88.80;;;;;;5084146;28;20101;-69
2023/03/20 06:11:48;;;;;;;0.10;0.10;;;7.70;88.80;;;;;;5075786;28;20123;-69
2023/03/20 06:14:14;;;;;;;0.03;0.03;;;7.70;88.80;;;;;;5085131;28;20044;-69
2023/03/20 06:16:39;;;;;;;0.08;0.08;;;7.70;88.70;;;;;;5088451;28;20042;-69
2023/03/20 06:19:05;;;;;;;0.10;0.10;;;7.70;88.80;;;;;;5088127;28;20047;-69
2023/03/20 06:21:31;;;;;;;0.05;0.05;;;7.80;88.80;;;;;;5088186;28;20047;-69
2023/03/20 06:23:58;;;;;;;0.15;0.15;;;7.70;88.70;;;;;;5084858;28;20130;-69
2023/03/20 06:26:24;;;;;;;0.20;0.20;;;7.80;88.70;;;;;;5066843;28;20059;-69
2023/03/20 06:28:50;;;;;;;0.88;0.45;;;7.80;88.70;;;;;;5085078;28;20544;-68
2023/03/20 06:31:16;;;;;;;0.00;0.00;;;7.70;88.70;;;;;;5061784;28;20051;-68
2023/03/20 06:33:43;;;;;;;0.10;0.10;;;7.80;88.80;;;;;;5078034;28;20048;-68
2023/03/20 06:36:09;;;;;;;1.17;1.08;;;7.80;88.70;;;;;;5069726;28;20045;-68
2023/03/20 06:38:34;;;;;;;0.52;0.52;;;7.70;88.50;;;;;;5078456;28;20050;-68
2023/03/20 06:41:00;;;;;;;0.10;0.10;;;7.70;88.70;;;;;;5083125;28;20405;-68
2023/03/20 06:43:26;;;;;;;2.10;1.30;;;7.80;88.80;;;;;;5081918;28;20063;-68
2023/03/20 06:45:51;;;;;;;0.30;0.30;;;7.70;88.80;;;;;;5087620;28;20130;-68
2023/03/20 06:48:20;;;;;;;0.30;0.30;;;7.80;88.60;;;;;;5083811;28;20485;-68
2023/03/20 06:50:50;;;;;;;0.00;0.00;;;7.80;88.80;;;;;;5086848;28;20047;-67
2023/03/20 06:53:16;;;;;;;0.30;0.30;;;8.00;89.00;;;;;;5085532;28;20845;-68
2023/03/20 06:55:45;;;;;;;0.00;0.00;;;8.00;88.90;;;;;;5082980;28;20032;-68
2023/03/20 06:58:10;;;;;;;0.00;0.00;;;8.00;88.70;;;;;;5080124;28;20070;-68
2023/03/20 07:00:36;;;;;;;1.75;0.75;;;8.00;88.70;;;;;;5083366;28;20044;-68
2023/03/20 07:03:03;;;;;;;0.55;0.55;;;8.00;88.70;;;;;;5086045;28;20055;-68
2023/03/20 07:05:28;;;;;;;0.00;0.00;;;8.00;88.30;;;;;;5063058;28;20493;-68
2023/03/20 07:07:54;;;;;;;0.43;0.43;;;8.10;88.50;;;;;;5087542;28;20127;-68
2023/03/20 07:10:20;;;;;;;0.17;0.17;;;8.10;88.30;;;;;;5084590;28;20072;-68
2023/03/20 07:12:45;;;;;;;0.08;0.08;;;8.00;88.40;;;;;;5091071;28;20124;-68
2023/03/20 07:15:11;;;;;;;0.00;0.00;;;8.10;88.50;;;;;;5087725;28;20087;-68
2023/03/20 07:17:36;;;;;;;0.10;0.10;;;8.10;88.60;;;;;;5079092;28;20036;-68
2023/03/20 07:20:03;;;;;;;0.00;0.00;;;8.30;88.80;;;;;;5086075;28;20087;-69
2023/03/20 07:22:30;;;;;;;0.30;0.30;;;8.30;88.40;;;;;;5091422;28;20036;-68
2023/03/20 07:24:56;;;;;;;0.00;0.00;;;8.30;88.30;;;;;;5057031;28;20386;-68
2023/03/20 07:27:22;;;;;;;0.00;0.00;;;8.30;88.20;;;;;;5037907;28;20066;-68
2023/03/20 07:29:48;;;;;;;0.63;0.63;;;8.20;88.00;;;;;;5072887;28;20041;-69
2023/03/20 07:32:13;;;;;;;0.00;0.00;;;8.20;88.10;;;;;;5054416;28;20048;-67
2023/03/20 07:34:39;;;;;;;0.30;0.30;;;8.20;88.00;;;;;;5054750;28;20413;-67
2023/03/20 07:37:06;;;;;;;0.28;0.28;;;8.20;88.00;;;;;;5087194;28;20052;-66
2023/03/20 07:39:31;;;;;;;0.00;0.00;;;8.20;88.00;;;;;;5092123;28;20084;-67
2023/03/20 07:41:57;;;;;;;0.00;0.00;;;8.30;87.70;;;;;;5091876;28;20036;-67
2023/03/20 07:44:22;;;;;;;0.10;0.10;;;8.30;87.90;;;;;;5091041;28;20093;-66
2023/03/20 07:46:48;;;;;;;0.20;0.20;;;8.30;87.80;;;;;;5071720;28;20390;-67
2023/03/20 07:49:17;;;;;;;0.38;0.38;;;8.30;87.90;;;;;;5071882;28;20123;-66
2023/03/20 07:51:47;;;;;;;0.00;0.00;;;8.30;87.70;;;;;;5085510;28;20485;-67
2023/03/20 07:54:14;;;;;;;0.00;0.00;;;8.30;87.80;;;;;;5068774;28;20059;-67
2023/03/20 07:56:39;;;;;;;0.00;0.00;;;8.40;87.80;;;;;;5079036;28;20044;-68
2023/03/20 07:59:05;;;;;;;0.00;0.00;;;8.40;87.80;;;;;;5069976;28;20051;-67
2023/03/20 08:01:31;;;;;;;0.00;0.00;;;8.40;87.80;;;;;;5092593;28;20036;-67
2023/03/20 08:03:56;;;;;;;0.25;0.25;;;8.40;87.60;;;;;;5091941;28;20036;-67
2023/03/20 08:06:22;;;;;;;0.55;0.55;;;8.50;87.70;;;;;;5092030;28;20067;-67
2023/03/20 08:08:51;;;;;;;0.17;0.17;;;8.50;87.70;;;;;;5091471;28;20114;-67
2023/03/20 08:11:17;;;;;;;0.20;0.20;;;8.50;87.60;;;;;;5071316;28;20059;-67
2023/03/20 08:13:44;;;;;;;1.27;0.73;;;8.60;87.60;;;;;;5097234;28;20047;-67
2023/03/20 08:16:09;;;;;;;0.00;0.00;;;8.60;87.50;;;;;;5092594;28;20079;-67
2023/03/20 08:18:35;;;;;;;0.00;0.00;;;8.60;87.50;;;;;;5090645;28;20072;-67
2023/03/20 08:21:01;;;;;;;0.00;0.00;;;8.70;87.30;;;;;;5090292;28;20093;-67
2023/03/20 08:23:27;;;;;;;0.43;0.38;;;8.60;86.80;;;;;;5077947;28;20044;-67
2023/03/20 08:25:55;;;;;;;0.10;0.10;;;8.60;86.90;;;;;;5091555;28;20408;-67
2023/03/20 08:28:22;;;;;;;0.00;0.00;;;8.70;86.80;;;;;;5091349;28;20103;-67
2023/03/20 08:30:48;;;;;;;0.00;0.00;;;8.70;86.80;;;;;;5092320;28;20031;-66
2023/03/20 08:33:15;;;;;;;0.00;0.00;;;8.70;86.80;;;;;;5083591;28;20679;-66
2023/03/20 08:35:42;;;;;;;0.00;0.00;;;8.80;86.70;;;;;;5066408;28;20492;-67
2023/03/20 08:38:11;;;;;;;0.10;0.10;;;8.80;86.60;;;;;;5070748;28;20090;-67
2023/03/20 08:40:40;;;;;;;0.00;0.00;;;8.90;86.50;;;;;;5112488;28;20040;-67
2023/03/20 08:43:06;;;;;;;0.10;0.10;;;8.90;86.50;;;;;;5093286;28;20080;-67
2023/03/20 08:45:32;;;;;;;0.15;0.15;;;8.90;86.40;;;;;;4973559;22;20159;-67
2023/03/20 08:47:58;;;;;;;0.00;0.00;;;8.90;86.40;;;;;;5050240;28;20881;-67
2023/03/20 08:50:23;;;;;;;4.47;1.00;;;8.90;86.40;;;;;;5038110;28;20441;-66
2023/03/20 08:52:49;;;;;;;0.00;0.00;;;8.90;86.20;;;;;;5006149;28;20065;-67
2023/03/20 08:55:15;;;;;;;0.00;0.00;;;9.00;86.10;;;;;;5029140;28;20049;-66
2023/03/20 08:57:41;;;;;;;0.10;0.10;;;8.90;85.80;;;;;;5029787;28;20045;-67
2023/03/20 09:00:11;;;;;;;0.00;0.00;;;8.90;85.80;;;;;;5023454;28;20041;-66
2023/03/20 09:02:37;;;;;;;1.38;1.00;;;9.00;85.90;;;;;;5015935;28;20078;-66
2023/03/20 09:05:03;;;;;;;0.00;0.00;;;9.00;85.80;;;;;;5025458;28;20037;-66
2023/03/20 09:07:29;;;;;;;0.00;0.00;;;9.10;85.80;;;;;;4990038;28;20490;-67
2023/03/20 09:09:54;;;;;;;0.10;0.10;;;9.10;85.70;;;;;;5029617;28;20057;-67
2023/03/20 09:12:20;;;;;;;0.10;0.10;;;9.10;85.40;;;;;;5012341;28;20049;-66
2023/03/20 09:14:46;;;;;;;0.60;0.60;;;9.20;85.20;;;;;;5015785;28;20060;-67
2023/03/20 09:17:11;;;;;;;0.00;0.00;;;9.20;85.50;;;;;;5018657;28;20038;-66
2023/03/20 09:19:38;;;;;;;0.90;0.57;;;9.20;85.50;;;;;;5011183;28;20124;-67
2023/03/20 09:22:05;;;;;;;0.00;0.00;;;9.20;85.40;;;;;;5018954;28;20049;-67
2023/03/20 09:24:31;;;;;;;1.08;1.08;;;9.20;85.60;;;;;;5025518;28;20128;-66
2023/03/20 09:26:57;;;;;;;0.00;0.00;;;9.30;85.60;;;;;;5022343;28;20049;-67
2023/03/20 09:29:23;;;;;;;0.03;0.03;;;9.30;85.30;;;;;;5027186;28;20044;-67
2023/03/20 09:31:49;;;;;;;0.20;0.20;;;9.30;85.40;;;;;;5029885;28;20406;-67
2023/03/20 09:34:15;;;;;;;0.05;0.05;;;9.30;85.00;;;;;;5029355;28;20418;-67
2023/03/20 09:36:40;;;;;;;0.20;0.20;;;9.30;85.00;;;;;;5013799;28;20053;-67
2023/03/20 09:39:06;;;;;;;0.77;0.70;;;9.30;85.00;;;;;;5024918;28;20040;-67
2023/03/20 09:41:35;;;;;;;0.10;0.10;;;9.30;85.10;;;;;;5030137;28;20399;-67
2023/03/20 09:44:18;;;;;;;0.20;0.20;;;9.20;84.80;;;;;;5029886;28;20751;-67
2023/03/20 09:46:48;;;;;;;0.10;0.10;;;9.20;85.20;;;;;;4990224;28;20062;-66
2023/03/20 09:49:33;;;;;;;1.02;1.02;;;9.30;85.20;;;;;;4988525;28;20086;-67
2023/03/20 09:52:12;;;;;;;0.00;0.00;;;9.20;85.20;;;;;;4978615;28;20503;-67
2023/03/20 09:54:44;;;;;;;0.20;0.20;;;9.30;85.20;;;;;;4989454;28;20046;-67
2023/03/20 09:57:16;;;;;;;;;;;9.30;85.20;;;;;;4980965;28;20101;-66
2023/03/20 09:59:42;;;;;;;0.00;0.00;;;9.30;85.00;;;;;;4988133;28;20016;-67
2023/03/20 10:02:18;;;;;;;0.10;0.10;;;9.30;84.90;;;;;;4984158;28;20050;-67
2023/03/20 10:04:47;;;;;;;0.00;0.00;;;9.20;84.80;;;;;;4986582;28;20053;-67
2023/03/20 10:07:16;;;;;;;0.00;0.00;;;9.20;84.30;;;;;;4989134;28;20046;-67
2023/03/20 10:09:42;;;;;;;0.00;0.00;;;9.20;84.70;;;;;;4982807;28;20055;-67
2023/03/20 10:12:33;;;;;;;0.10;0.10;;;9.20;84.90;;;;;;4970065;28;20055;-67
2023/03/20 10:15:02;;;;;;;0.00;0.00;;;9.30;85.10;;;;;;4975817;28;20050;-67
2023/03/20 10:17:34;;;;;;;0.57;0.57;;;9.30;85.10;;;;;;4980140;28;20051;-67
2023/03/20 10:20:12;;;;;;;0.00;0.00;;;9.30;84.90;;;;;;4974384;28;20614;-67
2023/03/20 10:22:43;;;;;;;1.30;1.20;;;9.30;85.10;;;;;;4988915;28;20061;-67
2023/03/20 10:25:29;;;;;;;0.00;0.00;;;9.30;85.10;;;;;;4986143;28;20057;-67
2023/03/20 10:27:57;;;;;;;0.63;0.63;;;9.30;85.00;;;;;;4983973;28;20112;-67
2023/03/20 10:30:29;;;;;;;0.40;0.40;;;9.30;85.00;;;;;;4989579;28;20046;-67
2023/03/20 10:32:54;;;;;;;0.10;0.10;;;9.20;85.00;;;;;;4988810;28;20070;-67
2023/03/20 10:35:25;;;;;;;0.65;0.65;;;9.20;85.20;;;;;;4986943;28;20042;-67
2023/03/20 10:38:25;;;;;;;0.00;0.00;;;9.20;85.70;;;;;;4986751;28;20070;-67
2023/03/20 10:40:53;;;;;;;0.00;0.00;;;9.20;85.60;;;;;;4978295;28;20065;-67
2023/03/20 10:43:32;;;;;;;4.38;0.98;;;9.20;85.50;;;;;;4976814;28;20117;-67
2023/03/20 10:46:03;;;;;;;0.20;0.20;;;9.20;85.60;;;;;;5017844;28;20124;-67
2023/03/20 10:48:34;;;;;;;0.00;0.00;;;9.30;85.50;;;;;;5021062;28;20101;-67
2023/03/20 10:51:02;;;;;;;0.40;0.40;;;9.20;85.20;;;;;;5027520;28;20057;-67
2023/03/20 10:53:30;;;;;;;0.00;0.00;;;9.20;85.40;;;;;;5027167;28;20454;-67
2023/03/20 10:56:00;;;;;;;0.00;0.00;;;9.20;85.50;;;;;;5022440;28;20057;-67
2023/03/20 10:58:30;;;;;;;0.00;0.00;;;9.20;85.70;;;;;;5026859;28;20060;-67
2023/03/20 11:00:58;;;;;;;7.32;1.10;;;9.20;85.70;;;;;;5018891;28;20064;-67
2023/03/20 11:03:30;;;;;;;0.00;0.00;;;9.10;85.90;;;;;;5028349;28;20397;-65
2023/03/20 11:06:04;;;;;;;0.00;0.00;;;9.10;86.10;;;;;;5026979;28;20064;-66
2023/03/20 11:08:35;;;;;;;0.00;0.00;;;9.20;86.30;;;;;;5028081;28;20054;-66
2023/03/20 11:11:02;;;;;;;1.88;1.35;;;9.20;86.30;;;;;;5028211;28;20049;-66
2023/03/20 11:13:37;;;;;;;2.92;1.65;;;9.20;86.50;;;;;;5028538;28;20052;-67
2023/03/20 11:16:30;;;;;;;0.25;0.25;;;9.20;86.80;;;;;;5028499;28;20053;-67
2023/03/20 11:19:07;;;;;;;0.00;0.00;;;9.20;87.00;;;;;;5022623;28;20037;-66
2023/03/20 11:21:43;;;;;;;0.00;0.00;;;9.10;87.10;;;;;;5008497;28;20072;-66
2023/03/20 11:24:24;;;;;;;0.00;0.00;;;9.10;87.30;;;;;;5017232;28;20491;-67
2023/03/20 11:26:51;;;;;;;0.00;0.00;;;9.10;87.90;;;;;;5027661;28;20061;-66
2023/03/20 11:29:29;;;;;;;0.00;0.00;;;9.00;88.00;;;;;;5028792;28;20045;-66
2023/03/20 11:32:21;;;;;;;0.47;0.47;;;9.00;88.10;;;;;;5028168;28;20065;-66
2023/03/20 11:34:46;;;;;;;0.00;0.00;;;8.90;88.50;;;;;;5026747;28;20045;-66
2023/03/20 11:37:24;;;;;;;0.25;0.25;;;8.90;88.90;;;;;;5026719;28;20053;-66
2023/03/20 11:39:58;;;;;;;0.25;0.25;;;8.80;88.90;;;;;;5026671;28;20049;-67
2023/03/20 11:42:29;;;;;;;0.05;0.05;;;8.80;89.30;;;;;;5026845;28;20080;-66
2023/03/20 11:45:01;;;;;;;0.00;0.00;;;8.70;89.50;;;;;;5026457;28;20414;-67
2023/03/20 11:47:31;;;;;;;0.10;0.10;;;8.80;89.40;;;;;;5026434;28;20053;-66
2023/03/20 11:49:59;;;;;;;0.43;0.35;;;8.80;89.80;;;;;;5026711;28;20045;-66
2023/03/20 11:52:42;;;;;;;0.50;0.50;;;8.70;89.90;;;;;;5027849;28;20046;-67
2023/03/20 11:55:28;;;;;;;0.00;0.00;;;8.60;90.10;;;;;;5026560;28;20096;-66
2023/03/20 11:57:59;;;;;;;0.55;0.52;;;8.60;90.30;;;;;;4993233;28;20558;-66
2023/03/20 12:00:41;;;;;;;0.13;0.13;;;8.50;90.50;;;;;;5020432;28;20042;-67
2023/03/20 12:03:25;;;;;;;;;;;8.60;90.60;;;;;;4999939;28;20120;-66
2023/03/20 12:05:58;;;;;;;0.10;0.10;;;8.50;90.60;;;;;;5011996;28;20378;-67
2023/03/20 12:08:28;;;;;;;0.03;0.03;;;8.50;90.90;;;;;;5013823;28;20045;-68
2023/03/20 12:11:05;;;;;;;0.20;0.20;;;8.50;90.90;;;;;;5030503;28;20104;-68
2023/03/20 12:13:42;;;;;;;0.00;0.00;;;8.40;91.20;;;;;;5031311;28;20042;-67
2023/03/20 12:16:14;;;;;;;0.00;0.00;;;8.40;91.30;;;;;;5031335;28;20053;-68
2023/03/20 12:18:42;;;;;;;0.00;0.00;;;8.50;91.30;;;;;;5018330;28;20046;-68
2023/03/20 12:21:19;;;;;;;0.00;0.00;;;8.50;91.40;;;;;;5023751;28;20108;-68
2023/03/20 12:23:52;;;;;;;0.77;0.65;;;8.60;91.20;;;;;;5010452;28;20135;-68
2023/03/20 12:26:36;;;;;;;0.00;0.00;;;8.50;91.30;;;;;;5030526;28;20353;-69
2023/03/20 12:29:09;;;;;;;0.10;0.10;;;8.50;91.40;;;;;;5011428;28;20077;-69
2023/03/20 12:32:05;;;;;;;0.10;0.10;;;8.50;91.50;;;;;;4992936;28;20050;-69
2023/03/20 12:34:40;;;;;;;0.00;0.00;;;8.50;91.50;;;;;;4988427;28;20062;-68
2023/03/20 12:37:10;;;;;;;1.25;0.47;;;8.40;91.50;;;;;;5027375;28;20655;-69
2023/03/20 12:39:41;;;;;;;0.00;0.00;;;8.40;91.80;;;;;;5030593;28;20053;-69
2023/03/20 12:42:41;;;;;;;0.00;0.00;;;8.60;91.70;;;;;;5030769;28;20054;-69
2023/03/20 12:45:20;;;;;;;0.00;0.00;;;8.50;91.60;;;;;;5013937;28;20420;-69
2023/03/20 12:47:55;;;;;;;0.00;0.00;;;8.50;91.70;;;;;;5029377;28;20045;-69
2023/03/20 12:50:27;;;;;;;0.00;0.00;;;8.50;91.70;;;;;;5021028;28;20073;-67
2023/03/20 12:53:07;;;;;;;0.20;0.20;;;8.60;91.60;;;;;;5029296;28;20128;-67
2023/03/20 12:55:54;;;;;;;0.00;0.00;;;8.60;91.60;;;;;;5028688;28;20457;-66
2023/03/20 12:58:34;;;;;;;0.08;0.08;;;8.60;91.60;;;;;;5030457;28;20756;-66
2023/03/20 13:01:10;;;;;;;0.00;0.00;;;8.60;91.60;;;;;;5030880;28;20056;-66
2023/03/20 13:03:43;;;;;;;0.00;0.00;;;8.60;91.70;;;;;;5030576;28;20054;-66
2023/03/20 13:06:35;;;;;;;0.00;0.00;;;8.60;91.70;;;;;;4998932;28;20053;-67
2023/03/20 13:09:15;;;;;;;0.20;0.20;;;8.60;91.80;;;;;;5019210;28;20067;-66
2023/03/20 13:11:53;;;;;;;1.85;1.33;;;8.60;91.90;;;;;;5030500;28;20046;-67
2023/03/20 13:14:49;;;;;;;0.00;0.00;;;8.60;92.00;;;;;;5030769;28;20056;-67
2023/03/20 13:17:44;;;;;;;0.00;0.00;;;8.60;92.00;;;;;;5026687;28;20072;-67